Latest Weather Observations for Mount Keith

IDW60801

Issued at 12:32 am WST Friday 29 May 2015 (issued every 30 minutes, with the page automatically refreshed every 10 minutes)

About weather observations | Map of weather stations | Latest weather observations for WA | Other Formats
Station Details ID: 512019 Name: MOUNT KEITH Lat: -27.29 Lon: 120.55 Height: 542.33 m
Data from the previous 72 hours. | See also: Recent months for locations in Western Australia
Date/Time
WST
Temp
°C
App
Temp
°C
Dew
Point
Rel
Hum
%
Delta-T
°C
Wind Press
QNH
hPa
Press
MSL
hPa
Rain
since 9 am
mm
Dir
 
Spd
km/h
Gust
km/h
Spd
kts
Gust
kts
29/12:30am 12.5 11.5 12.2 98 0.2 E 9 15 5 8 1021.4 1019.9 0.6
29/12:25am 12.5 11.1 12.2 98 0.2 E 11 13 6 7 1021.4 1019.9 0.6
29/12:10am 12.5 10.7 12.2 98 0.2 E 13 17 7 9 1021.6 1020.2 0.6
29/12:00am 12.7 11.0 12.4 98 0.2 ENE 13 19 7 10 1021.5 1020.0 0.6
 
Date/Time
WST
Temp
°C
App
Temp
°C
Dew
Point
Rel
Hum
%
Delta-T
°C
Wind Press
QNH
hPa
Press
MSL
hPa
Rain
since 9 am
mm
Dir
 
Spd
km/h
Gust
km/h
Spd
kts
Gust
kts
28/11:42pm 12.9 11.2 12.6 98 0.2 E 13 22 7 12 1021.4 1019.9 0.6
28/11:30pm 12.7 11.4 12.4 98 0.2 E 11 15 6 8 1021.5 1020.0 0.6
28/11:00pm 12.9 11.2 12.4 97 0.3 ESE 13 17 7 9 1021.7 1020.3 0.6
28/10:30pm 12.9 10.8 12.4 97 0.3 ESE 15 22 8 12 1021.9 1020.5 0.6
28/10:00pm 12.6 10.8 12.1 97 0.3 ESE 13 15 7 8 1022.1 1020.7 0.6
28/09:30pm 12.6 10.8 12.0 96 0.3 ESE 13 17 7 9 1022.0 1020.6 0.6
28/09:00pm 12.8 11.4 12.2 96 0.3 ESE 11 13 6 7 1021.9 1020.5 0.6
28/08:30pm 12.6 11.5 11.8 95 0.4 SE 9 11 5 6 1021.6 1020.2 0.6
28/08:00pm 12.8 11.7 11.9 94 0.5 SE 9 11 5 6 1021.3 1019.8 0.6
28/07:30pm 13.3 12.3 12.2 93 0.6 SE 9 11 5 6 1021.1 1019.6 0.6
28/07:00pm 13.6 12.2 12.3 92 0.7 ESE 11 11 6 6 1020.8 1019.4 0.6
28/06:30pm 14.2 13.6 12.4 89 1.0 SE 7 9 4 5 1020.5 1019.1 0.6
28/06:00pm 15.1 14.2 12.6 85 1.4 SE 9 11 5 6 1020.1 1018.7 0.6
28/05:30pm 16.1 14.5 12.8 81 1.9 SE 13 15 7 8 1019.8 1018.3 0.6
28/05:00pm 16.9 14.5 12.8 77 2.3 SE 17 20 9 11 1019.6 1018.1 0.6
28/04:30pm 17.6 15.3 12.9 74 2.7 ESE 17 24 9 13 1019.3 1017.8 0.6
28/04:00pm 18.1 15.9 13.2 73 2.8 ESE 17 20 9 11 1019.2 1017.7 0.6
28/03:30pm 18.0 15.5 13.5 75 2.6 SE 19 26 10 14 1019.1 1017.6 0.6
28/03:00pm 18.0 16.1 12.9 72 2.9 ESE 15 20 8 11 1019.1 1017.6 0.6
28/02:30pm 17.5 15.2 13.0 75 2.6 SE 17 22 9 12 1018.8 1017.4 0.6
28/02:00pm 17.3 15.1 14.4 83 1.7 SE 19 20 10 11 1018.7 1017.3 0.6
28/01:30pm 16.7 15.2 13.2 80 2.0 SE 13 19 7 10 1019.1 1017.6 0.4
28/01:00pm 16.6 14.9 13.7 83 1.7 SE 15 20 8 11 1019.2 1017.7 0.4
28/12:54pm 16.5 15.2 13.8 84 1.6 SE 13 19 7 10 1019.4 1017.9 0.4
28/12:30pm 16.2 14.2 13.9 86 1.3 SE 17 22 9 12 1019.6 1018.1 0.4
28/12:22pm 16.0 14.5 14.2 89 1.0 SSE 15 20 8 11 1019.7 1018.2 0.4
28/12:00pm 15.9 14.1 14.4 91 0.9 SE 17 20 9 11 1020.0 1018.6 0.4
28/11:50am 15.8 13.9 14.2 90 0.9 SSE 17 20 9 11 1020.0 1018.6 0.4
28/11:30am 15.8 13.7 13.6 87 1.3 SSE 17 22 9 12 1020.2 1018.8 0.2
28/11:00am 15.8 14.0 13.3 85 1.4 SE 15 20 8 11 1020.4 1019.0 0.2
28/10:30am 16.0 13.5 13.5 85 1.4 SSE 19 24 10 13 1020.4 1019.0 0.2
28/10:00am 15.5 13.4 13.5 88 1.1 SE 17 22 9 12 1020.4 1019.0 0.2
28/09:30am 15.3 13.7 14.0 92 0.8 SE 15 20 8 11 1020.5 1019.1 0.2
28/09:01am 15.0 13.8 14.0 94 0.6 SSE 13 17 7 9 1020.3 1018.9 0.0
28/09:00am 14.9 13.7 13.9 94 0.6 SSE 13 17 7 9 1020.2 1018.8 0.0
28/08:30am 15.0 14.5 13.9 93 0.6 SE 9 15 5 8 1020.1 1018.7 0.0
28/08:00am 14.5 14.0 13.7 95 0.5 ESE 9 11 5 6 1020.0 1018.6 0.0
28/07:30am 13.9 13.3 13.4 97 0.3 SE 9 11 5 6 1019.8 1018.3 0.0
28/07:00am 13.5 13.2 13.2 98 0.2 SE 7 9 4 5 1019.7 1018.2 0.0
28/06:30am 13.2 13.0 12.9 98 0.2 SE 6 6 3 3 1019.4 1017.9 0.0
28/06:00am 13.0 12.5 12.7 98 0.2 SE 7 9 4 5 1019.1 1017.6 0.0
28/05:30am 12.8 11.9 12.5 98 0.2 SE 9 9 5 5 1018.8 1017.4 0.0
28/05:00am 12.7 12.1 12.4 98 0.2 SSE 7 7 4 4 1018.6 1017.2 0.0
28/04:36am 12.5 12.4 12.2 98 0.2 SSE 4 7 2 4 1018.6 1017.2 0.0
28/04:30am 12.4 13.1 12.1 98 0.2 CALM 0 0 0 0 1018.6 1017.2 0.0
28/04:24am 12.4 13.1 12.1 98 0.2 CALM 0 0 0 0 1018.5 1017.1 0.0
28/04:00am 12.1 11.8 11.6 97 0.3 SE 4 6 2 3 1018.5 1017.1 0.0
28/03:56am 12.2 11.6 11.7 97 0.3 SE 6 7 3 4 1018.7 1017.3 0.0
28/03:52am 12.2 11.6 11.7 97 0.3 SE 6 7 3 4 1018.7 1017.3 0.0
28/03:30am 12.1 12.6 11.5 96 0.3 CALM 0 0 0 0 1018.6 1017.2 0.0
28/03:00am 12.5 13.1 11.9 96 0.3 CALM 0 0 0 0 1018.5 1017.1 0.0
28/02:30am 13.1 12.6 12.6 97 0.3 E 7 9 4 5 1018.4 1017.0 0.0
28/02:00am 13.4 12.9 12.8 96 0.3 E 7 7 4 4 1018.7 1017.3 0.0
28/01:30am 13.8 13.4 13.0 95 0.5 E 7 9 4 5 1018.8 1017.4 0.0
28/01:00am 14.0 13.7 13.2 95 0.5 ENE 7 9 4 5 1019.0 1017.5 0.0
28/12:30am 14.1 13.9 13.1 94 0.6 E 6 7 3 4 1019.3 1017.8 0.0
28/12:00am 14.3 14.2 13.2 93 0.6 SE 6 7 3 4 1019.3 1017.8 0.0
 
Date/Time
WST
Temp
°C
App
Temp
°C
Dew
Point
Rel
Hum
%
Delta-T
°C
Wind Press
QNH
hPa
Press
MSL
hPa
Rain
since 9 am
mm
Dir
 
Spd
km/h
Gust
km/h
Spd
kts
Gust
kts
27/11:30pm 14.8 14.5 13.3 91 0.9 ESE 7 9 4 5 1019.4 1017.9 0.0
27/11:00pm 15.0 14.0 13.5 91 0.9 ENE 11 13 6 7 1019.6 1018.1 0.0
27/10:30pm 14.5 13.9 13.4 93 0.6 E 9 11 5 6 1019.7 1018.2 0.0
27/10:00pm 14.7 14.5 13.1 90 0.9 E 6 7 3 4 1019.8 1018.3 0.0
27/09:30pm 15.3 14.7 13.5 89 1.0 ENE 9 11 5 6 1019.6 1018.1 0.0
27/09:00pm 15.3 15.0 13.3 88 1.1 ENE 7 9 4 5 1019.9 1018.4 0.0
27/08:30pm 15.6 15.3 13.4 87 1.3 SSE 7 9 4 5 1019.9 1018.4 0.0
27/08:00pm 15.6 15.4 13.1 85 1.4 ENE 6 7 3 4 1020.0 1018.6 0.0
27/07:30pm 15.5 15.0 12.6 83 1.6 ENE 7 9 4 5 1019.8 1018.3 0.0
27/07:00pm 16.2 15.7 12.7 80 2.0 E 7 9 4 5 1019.7 1018.2 0.0
27/06:30pm 16.4 15.9 12.8 79 2.1 E 7 9 4 5 1019.6 1018.1 0.0
27/06:00pm 16.7 15.8 12.7 77 2.3 ENE 9 11 5 6 1019.3 1017.8 0.0
27/05:30pm 17.0 15.7 12.5 75 2.6 ENE 11 17 6 9 1019.0 1017.5 0.0
27/05:00pm 17.5 16.2 12.4 72 2.9 NE 11 15 6 8 1018.7 1017.3 0.0
27/04:30pm 17.9 16.8 12.1 69 3.3 ENE 9 13 5 7 1018.8 1017.4 0.0
27/04:00pm 18.1 17.0 11.9 67 3.5 ENE 9 15 5 8 1019.1 1017.6 0.0
27/03:30pm 18.3 16.8 11.8 66 3.7 NE 11 15 6 8 1018.8 1017.4 0.0
27/03:00pm 18.4 17.5 11.2 63 4.0 NE 7 11 4 6 1019.0 1017.5 0.0
27/02:30pm 18.3 17.7 12.3 68 3.4 ESE 7 13 4 7 1018.7 1017.3 0.0
27/02:00pm 18.4 17.6 12.8 70 3.2 SE 9 13 5 7 1018.8 1017.4 0.0
27/01:30pm 18.2 17.7 12.2 68 3.4 ESE 6 11 3 6 1019.2 1017.7 0.0
27/01:00pm 18.7 18.2 12.2 66 3.7 NE 6 9 3 5 1019.3 1017.8 0.0
27/12:30pm 17.7 17.7 12.4 71 3.0 ESE 4 9 2 5 1019.6 1018.1 0.0
27/12:00pm 17.7 17.4 12.8 73 2.8 E 6 11 3 6 1020.0 1018.6 0.0
27/11:41am 17.2 16.8 12.9 76 2.5 ESE 7 15 4 8 1020.6 1019.2 0.0
27/11:30am 16.3 16.6 12.1 76 2.4 ENE 2 7 1 4 1021.0 1019.5 0.0
27/11:00am 15.6 14.4 12.7 83 1.6 NE 11 15 6 8 1021.6 1020.2 0.0
27/10:35am 15.6 14.7 12.7 83 1.6 E 9 13 5 7 1022.0 1020.6 0.0
27/10:30am 15.8 15.0 12.9 83 1.6 ESE 9 13 5 7 1021.8 1020.4 0.0
27/10:00am 14.1 13.7 13.0 93 0.6 SE 7 9 4 5 1022.5 1021.1 0.0
27/09:30am 13.8 13.4 12.9 94 0.5 SE 7 11 4 6 1022.5 1021.1 0.0
27/09:00am 13.7 13.3 12.9 95 0.4 NE 7 9 4 5 1022.4 1021.0 -
27/08:30am 13.3 12.4 12.7 96 0.3 NE 9 13 5 7 1022.2 1020.8 -
27/08:00am 13.0 12.5 12.5 97 0.3 NE 7 11 4 6 1022.0 1020.6 -
27/07:30am 12.7 12.2 12.2 97 0.3 SSW 6 7 3 4 1021.7 1020.3 -
27/07:00am 12.8 13.6 12.5 98 0.2 CALM 0 0 0 0 1021.3 1019.8 -
27/06:30am 12.6 12.2 12.4 99 0.1 SW 6 7 3 4 1021.1 1019.6 -
27/06:00am 12.1 11.6 11.9 99 0.1 WSW 6 9 3 5 1020.7 1019.3 -
27/05:30am 12.0 11.5 12.0 100 0.0 WNW 6 7 3 4 1020.6 1019.2 -
27/05:00am 12.0 12.6 12.0 100 0.0 CALM 0 0 0 0 1020.5 1019.1 -
27/04:38am 12.1 11.6 12.1 100 0.0 SSW 6 9 3 5 1020.4 1019.0 -
27/04:34am 12.1 11.4 12.1 100 0.0 SSW 7 9 4 5 1020.5 1019.1 -
27/04:30am 12.2 11.2 12.2 100 0.0 SSW 9 11 5 6 1020.5 1019.1 -
27/04:00am 12.1 12.8 12.1 100 0.0 CALM 0 0 0 0 1020.8 1019.4 -
27/03:30am 12.2 12.5 12.2 100 0.0 SSE 2 7 1 4 1021.0 1019.5 -
27/03:00am 12.4 12.0 12.4 100 0.0 NNW 6 7 3 4 1020.8 1019.4 0.0
27/02:30am 12.4 11.8 12.4 100 0.0 N 7 9 4 5 1021.0 1019.5 -
27/02:00am 12.7 11.5 12.7 100 0.0 N 11 15 6 8 1021.4 1019.9 -
27/01:30am 13.0 12.2 13.0 100 0.0 NNW 9 13 5 7 1021.5 1020.0 -
27/01:25am 13.0 12.6 13.0 100 0.0 N 7 11 4 6 1021.6 1020.2 -
27/01:03am 12.7 12.2 12.7 100 0.0 NNE 7 11 4 6 1021.5 1020.0 -
27/01:00am 12.8 12.3 12.8 100 0.0 NNE 7 11 4 6 1021.5 1020.0 -
27/12:30am 12.2 12.1 12.2 100 0.0 NNE 4 6 2 3 1021.7 1020.3 -
27/12:00am 11.9 12.1 11.7 99 0.1 NE 2 6 1 3 1022.0 1020.6 -
 
Date/Time
WST
Temp
°C
App
Temp
°C
Dew
Point
Rel
Hum
%
Delta-T
°C
Wind Press
QNH
hPa
Press
MSL
hPa
Rain
since 9 am
mm
Dir
 
Spd
km/h
Gust
km/h
Spd
kts
Gust
kts
26/11:30pm 12.0 11.4 11.8 99 0.1 E 6 9 3 5 1022.7 1021.3 -
26/11:00pm 12.4 13.1 12.2 99 0.1 CALM 0 0 0 0 1023.1 1021.6 -
26/10:33pm 12.1 11.9 11.8 98 0.2 NE 4 11 2 6 1023.3 1021.9 -
26/10:30pm 12.1 12.3 11.8 98 0.2 NE 2 11 1 6 1023.3 1021.9 -
26/10:19pm 12.0 12.1 11.5 97 0.3 NE 2 6 1 3 1023.3 1021.9 -
26/10:14pm 11.7 10.9 11.2 97 0.3 NE 6 7 3 4 1023.2 1021.7 -
26/10:13pm 11.7 10.9 11.2 97 0.3 NE 6 7 3 4 1023.2 1021.7 -
26/10:00pm 11.9 11.2 11.4 97 0.3 NE 6 7 3 4 1023.1 1021.6 -
26/09:56pm 11.9 11.2 11.4 97 0.3 NE 6 7 3 4 1023.1 1021.6 -
26/09:53pm 11.9 11.2 11.3 96 0.3 NE 6 9 3 5 1023.1 1021.6 -
26/09:30pm 12.4 11.8 11.8 96 0.3 SE 6 7 3 4 1023.2 1021.7 -
26/09:00pm 13.0 12.5 12.2 95 0.4 NNE 6 7 3 4 1023.5 1022.1 -
26/07:00pm 14.2 13.5 13.1 93 0.6 NE 9 11 5 6 1023.0 1021.5 0.0
26/06:30pm 14.8 14.2 13.5 92 0.7 NNE 9 11 5 6 1022.6 1021.2 0.0
26/06:00pm 15.3 14.0 13.7 90 0.9 NNE 13 15 7 8 1022.4 1021.0 0.0
26/05:30pm 16.0 14.7 13.7 86 1.3 NNE 13 20 7 11 1022.1 1020.7 0.0
26/05:00pm 16.9 14.8 13.6 81 1.9 NNE 17 20 9 11 1022.1 1020.7 0.0
26/04:30pm 17.3 15.1 13.4 78 2.3 NE 17 20 9 11 1022.0 1020.6 0.0
26/04:00pm 18.2 17.5 13.1 72 2.9 NNE 9 17 5 9 1021.9 1020.5 0.0
26/03:30pm 17.7 16.4 12.6 72 2.9 NE 11 17 6 9 1022.0 1020.6 0.0
26/03:00pm 18.1 16.6 13.0 72 2.9 NNE 13 17 7 9 1021.9 1020.5 0.0
26/02:30pm 17.6 16.1 13.1 75 2.6 NE 13 17 7 9 1021.7 1020.3 0.0
26/02:00pm 17.9 16.6 13.6 76 2.5 ENE 13 19 7 10 1021.8 1020.4 0.0
26/01:30pm 17.6 16.3 13.7 78 2.3 NE 13 17 7 9 1022.0 1020.6 0.0
26/01:00pm 17.2 15.0 13.3 78 2.2 NNE 17 22 9 12 1022.2 1020.8 0.0
26/12:30pm 17.8 16.4 13.5 76 2.5 NE 13 17 7 9 1022.5 1021.1 0.0
26/12:00pm 18.3 17.6 13.2 72 2.9 NNE 9 17 5 9 1022.8 1021.4 0.0
26/11:30am 17.6 17.4 13.5 77 2.4 ESE 7 9 4 5 1023.4 1022.0 0.0
26/11:00am 16.8 16.1 13.1 79 2.1 E 9 11 5 6 1023.9 1022.5 0.0
26/10:30am 16.6 15.5 13.1 80 2.0 NE 11 17 6 9 1024.0 1022.6 0.0
26/10:00am 16.7 16.1 13.6 82 1.8 ENE 9 13 5 7 1024.0 1022.6 0.0
26/09:30am 16.1 15.8 13.2 83 1.7 ENE 7 11 4 6 1024.2 1022.8 0.0
26/09:00am 15.6 14.9 13.3 86 1.3 E 9 11 5 6 1024.0 1022.6 0.2
26/08:30am 15.9 15.8 13.9 88 1.2 SE 7 9 4 5 1023.9 1022.5 0.2
26/08:20am 15.3 16.2 14.0 92 0.8 SSE 2 9 1 5 1023.9 1022.5 0.2
26/08:00am 15.0 16.2 13.7 92 0.7 CALM 0 0 0 0 1023.8 1022.4 0.2
26/07:50am 15.0 15.8 14.7 98 0.2 S 4 7 2 4 1023.8 1022.4 0.2
26/07:30am 14.2 15.5 14.2 100 0.0 CALM 0 0 0 0 1023.6 1022.2 0.2
26/07:00am 14.0 15.3 14.0 100 0.0 CALM 0 0 0 0 1023.2 1021.7 0.2
26/06:30am 13.9 15.1 13.9 100 0.0 CALM 0 0 0 0 1023.0 1021.5 0.2
26/06:07am 13.7 14.1 13.7 100 0.0 N 4 6 2 3 1022.4 1021.0 0.2
26/06:00am 13.7 13.7 13.7 100 0.0 N 6 6 3 3 1022.4 1021.0 0.2
26/05:30am 13.7 13.5 13.7 100 0.0 NNE 7 11 4 6 1022.3 1020.9 0.2
26/05:00am 13.7 13.7 13.7 100 0.0 N 6 7 3 4 1022.1 1020.7 0.2
26/04:30am 13.7 13.7 13.7 100 0.0 NNE 6 7 3 4 1021.9 1020.5 0.2
26/04:00am 13.6 13.0 13.6 100 0.0 NNE 9 11 5 6 1021.9 1020.5 0.2
26/03:50am 13.7 13.2 13.7 100 0.0 NNE 9 13 5 7 1021.9 1020.5 0.2
26/03:30am 13.5 13.5 13.5 100 0.0 N 6 7 3 4 1021.7 1020.3 0.2
26/03:00am 13.7 13.5 13.7 100 0.0 NNE 7 7 4 4 1021.7 1020.3 0.0
26/02:30am 13.8 14.6 13.8 100 0.0 NNE 2 6 1 3 1021.7 1020.3 0.0
26/02:00am 14.1 14.3 14.1 100 0.0 NNE 6 7 3 4 1021.8 1020.4 0.0
26/01:56am 14.0 13.9 14.0 100 0.0 NNE 7 15 4 8 1021.9 1020.5 0.0
26/01:30am 14.2 13.1 14.2 100 0.0 NNE 13 17 7 9 1022.2 1020.8 0.0
26/01:00am 13.8 13.3 13.8 100 0.0 NNE 9 15 5 8 1022.2 1020.8 0.0

Other Formats:

Comma delimited format used in spreadsheet applications
http://www.bom.gov.au/fwo/IDW60801/IDW60801.99434.axf

JavaScript Object Notation format (JSON) in row-major order
http://www.bom.gov.au/fwo/IDW60801/IDW60801.99434.json